Time;durP1;ratioP1;P1;durP2;ratioP2;P2;SDS_P1;SDS_P2;PMS_P1;PMS_P2;Temp;Humidity;BMP_temperature;BMP_pressure;BME280_temperature;BME280_humidity;BME280_pressure;Samples;Min_cycle;Max_cycle;Signal;HPM_P1;HPM_P2
2022/01/17 00:00:23;;;;;;;67.60;44.70;;;;;;;1.51;61.37;100309.13;6308026;22;19999;-77
2022/01/17 00:02:51;;;;;;;66.90;46.40;;;;;;;1.48;61.11;100306.69;6308145;22;20003;-77
2022/01/17 00:05:18;;;;;;;63.93;43.27;;;;;;;1.47;61.15;100304.19;6308351;22;20011;-77
2022/01/17 00:07:43;;;;;;;65.80;43.93;;;;;;;1.26;61.14;100281.25;6280916;22;20005;-77
2022/01/17 00:10:10;;;;;;;61.67;39.77;;;;;;;1.43;61.11;100307.94;6308876;22;20003;-77
2022/01/17 00:12:38;;;;;;;63.00;41.20;;;;;;;1.00;60.91;100245.72;6309463;22;20403;-77
2022/01/17 00:15:21;;;;;;;61.50;39.67;;;;;;;1.38;60.93;100297.81;6281803;22;19995;-77
2022/01/17 00:17:51;;;;;;;52.83;36.37;;;;;;;1.03;61.41;100255.09;6308996;22;20549;-77
2022/01/17 00:20:25;;;;;;;47.20;34.17;;;;;;;1.28;61.21;100299.38;6309542;22;20027;-77
2022/01/17 00:22:50;;;;;;;52.50;37.90;;;;;;;1.18;61.19;100293.94;6309043;22;20006;-77
2022/01/17 00:25:16;;;;;;;52.00;37.30;;;;;;;1.06;61.23;100276.53;6309180;22;20074;-77
2022/01/17 00:27:41;;;;;;;56.93;40.60;;;;;;;0.41;61.19;100179.38;6309220;22;20006;-77
2022/01/17 00:30:09;;;;;;;57.23;39.97;;;;;;;1.16;61.41;100302.78;6308952;22;19999;-77
2022/01/17 00:32:34;;;;;;;54.20;37.77;;;;;;;1.15;61.46;100301.94;6309018;22;20088;-77
2022/01/17 00:35:00;;;;;;;60.20;41.80;;;;;;;0.95;61.53;100272.03;6281705;22;20537;-77
2022/01/17 00:37:25;;;;;;;59.07;40.63;;;;;;;1.04;61.57;100291.41;6308686;22;20066;-77
2022/01/17 00:39:51;;;;;;;59.80;40.53;;;;;;;0.75;61.39;100230.06;6308614;22;20002;-77
2022/01/17 00:42:16;;;;;;;53.53;37.57;;;;;;;1.04;61.38;100272.34;6281257;22;20013;-77
2022/01/17 00:44:41;;;;;;;57.07;39.97;;;;;;;0.91;61.16;100249.75;6281042;22;20078;-77
2022/01/17 00:47:07;;;;;;;59.73;40.53;;;;;;;0.83;61.17;100238.19;6308772;22;20508;-77
2022/01/17 00:49:33;;;;;;;64.10;42.23;;;;;;;1.18;61.67;100295.69;6281034;22;20003;-77
2022/01/17 00:51:58;;;;;;;61.33;41.50;;;;;;;1.17;61.29;100289.66;6309264;22;19987;-77
2022/01/17 00:54:24;;;;;;;64.17;43.43;;;;;;;1.08;61.60;100277.25;6308583;22;20057;-77
2022/01/17 00:56:49;;;;;;;62.57;42.17;;;;;;;1.19;61.61;100287.78;6308579;22;20348;-77
2022/01/17 00:59:14;;;;;;;65.27;45.63;;;;;;;1.12;61.26;100270.94;6307915;22;20416;-77
2022/01/17 01:01:40;;;;;;;61.83;45.03;;;;;;;0.94;61.26;100240.94;6308110;22;20066;-77
2022/01/17 01:04:06;;;;;;;64.23;43.83;;;;;;;0.69;61.32;100194.03;6280308;22;20003;-77
2022/01/17 01:06:31;;;;;;;68.40;46.17;;;;;;;1.18;61.42;100267.94;6308488;22;19995;-77
2022/01/17 01:08:58;;;;;;;70.53;48.77;;;;;;;1.17;61.35;100268.84;6308826;22;19995;-77
2022/01/17 01:11:23;;;;;;;71.20;48.17;;;;;;;0.60;61.45;100193.69;6309523;22;20594;-77
2022/01/17 01:13:49;;;;;;;64.80;44.57;;;;;;;1.03;61.62;100268.94;6309423;22;19995;-77
2022/01/17 01:19:08;;;;;;;56.00;36.53;;;;;;;0.38;61.37;100148.41;6309605;22;20006;-77
2022/01/17 01:29:27;;;;;;;52.97;36.23;;;;;;;0.69;61.52;100200.06;6308404;22;20011;-77
2022/01/17 01:31:58;;;;;;;53.03;37.20;;;;;;;0.39;61.57;100150.09;6309108;22;20002;-77
2022/01/17 01:34:41;;;;;;;49.77;34.50;;;;;;;0.41;61.52;100151.66;6308862;22;20061;-77
2022/01/17 01:37:07;;;;;;;46.07;34.47;;;;;;;0.71;61.62;100193.00;6309004;22;19995;-77
2022/01/17 01:39:37;;;;;;;53.90;37.73;;;;;;;0.82;61.67;100213.13;6280438;22;20013;-77
2022/01/17 01:42:04;;;;;;;51.70;37.97;;;;;;;0.83;61.49;100194.84;6279516;22;20357;-77
2022/01/17 01:44:30;;;;;;;51.67;36.37;;;;;;;0.86;61.36;100206.78;6307243;22;20009;-77
2022/01/17 01:46:57;;;;;;;49.93;34.80;;;;;;;0.87;61.20;100195.47;6308436;22;20002;-77
2022/01/17 01:49:23;;;;;;;48.30;34.97;;;;;;;0.89;61.57;100185.78;6281147;22;20060;-77
2022/01/17 01:51:49;;;;;;;53.03;35.33;;;;;;;0.45;61.47;100113.31;6308644;22;19999;-77
2022/01/17 01:54:15;;;;;;;56.57;37.10;;;;;;;0.97;61.28;100190.50;6308697;22;20002;-76
2022/01/17 01:56:44;;;;;;;74.43;47.67;;;;;;;0.85;61.18;100153.97;6308698;22;19995;-77
2022/01/17 01:59:10;;;;;;;72.97;46.10;;;;;;;0.46;61.15;100087.25;6308379;22;20073;-77
2022/01/17 02:01:36;;;;;;;70.10;43.40;;;;;;;1.00;61.44;100172.94;6308440;22;19999;-77
2022/01/17 02:04:03;;;;;;;63.80;40.90;;;;;;;0.98;61.27;100167.00;6307522;22;20129;-77
2022/01/17 02:06:29;;;;;;;65.23;40.70;;;;;;;0.22;61.04;100039.50;6308190;22;19999;-77
2022/01/17 02:08:54;;;;;;;60.53;39.43;;;;;;;0.90;61.38;100154.50;6308680;22;20528;-77
2022/01/17 02:11:20;;;;;;;60.23;39.60;;;;;;;0.46;61.51;100097.63;6282176;22;20044;-77
2022/01/17 02:13:46;;;;;;;58.40;37.30;;;;;;;-0.12;61.48;99986.31;6308980;22;20385;-77
2022/01/17 02:16:15;;;;;;;60.83;39.00;;;;;;;0.90;61.33;100146.69;6308736;22;20033;-77
2022/01/17 02:18:41;;;;;;;58.10;39.10;;;;;;;0.93;61.32;100143.91;6308645;22;20360;-77
2022/01/17 02:21:17;;;;;;;56.73;37.57;;;;;;;0.36;61.39;100060.22;6308817;22;20003;-78
2022/01/17 02:23:46;;;;;;;46.93;35.27;;;;;;;0.73;61.30;100120.13;6309535;22;20002;-77
2022/01/17 02:26:13;;;;;;;52.73;35.40;;;;;;;0.76;61.22;100145.94;6310370;22;20023;-77
2022/01/17 02:28:43;;;;;;;52.63;35.97;;;;;;;0.76;61.55;100157.19;6310255;22;19999;-77
2022/01/17 02:31:09;;;;;;;47.60;30.17;;;;;;;0.05;61.44;100030.22;6310843;22;19995;-77
2022/01/17 02:33:35;;;;;;;42.93;29.23;;;;;;;0.32;61.60;100074.31;6309405;22;20002;-77
2022/01/17 02:36:01;;;;;;;42.57;28.37;;;;;;;0.75;61.43;100149.47;6309467;22;19994;-77
2022/01/17 02:38:27;;;;;;;37.03;25.30;;;;;;;0.38;61.31;100091.28;6282328;22;20017;-77
2022/01/17 02:40:54;;;;;;;34.47;24.97;;;;;;;0.69;61.35;100148.09;6310276;22;20074;-77
2022/01/17 02:43:21;;;;;;;37.10;25.43;;;;;;;0.67;61.33;100156.91;6310115;22;20014;-77
2022/01/17 02:48:21;;;;;;;34.72;23.00;;;;;;;0.05;61.54;100073.50;6310465;22;20502;-77
2022/01/17 02:50:47;;;;;;;32.20;23.27;;;;;;;0.56;61.17;100140.25;6310506;22;20003;-77
2022/01/17 02:53:13;;;;;;;31.37;24.77;;;;;;;0.54;61.24;100144.72;6282930;22;20055;-77
2022/01/17 02:55:46;;;;;;;32.97;24.53;;;;;;;0.29;61.14;100100.50;6283015;22;20051;-77
2022/01/17 02:58:12;;;;;;;32.00;22.83;;;;;;;0.34;61.32;100114.00;6310166;22;20329;-77
2022/01/17 03:00:38;;;;;;;33.50;23.30;;;;;;;0.48;61.41;100133.91;6283365;22;20082;-77
2022/01/17 03:03:04;;;;;;;35.83;25.23;;;;;;;0.11;61.29;100067.94;6311374;22;20003;-77
2022/01/17 03:05:29;;;;;;;34.40;22.57;;;;;;;0.50;61.10;100119.88;6283984;22;19999;-77
2022/01/17 03:07:55;;;;;;;32.83;25.17;;;;;;;0.31;61.19;100106.41;6281857;22;20436;-77
2022/01/17 03:12:51;;;;;;;38.05;25.73;;;;;;;-0.02;61.18;100029.75;6307998;22;20460;-77
2022/01/17 03:15:16;;;;;;;37.10;24.10;;;;;;;0.23;61.26;100078.34;6307464;22;20026;-77
2022/01/17 03:17:42;;;;;;;33.93;24.33;;;;;;;0.48;60.97;100116.53;6308439;22;19999;-77
2022/01/17 03:20:08;;;;;;;34.77;23.57;;;;;;;0.48;61.14;100120.91;6309171;22;20002;-77
2022/01/17 03:22:33;;;;;;;33.70;24.40;;;;;;;-0.18;61.16;100018.69;6308826;22;20003;-77
2022/01/17 03:24:59;;;;;;;32.07;20.60;;;;;;;0.14;61.05;100097.13;6309536;22;20067;-78
2022/01/17 03:27:25;;;;;;;32.77;22.83;;;;;;;-0.11;61.21;100071.88;6309142;22;20402;-77
2022/01/17 03:29:50;;;;;;;31.73;22.13;;;;;;;-0.42;61.46;100025.44;6308893;22;20456;-77
2022/01/17 03:32:15;;;;;;;33.47;21.87;;;;;;;-0.46;61.41;100019.63;6309319;22;20066;-77
2022/01/17 03:34:42;;;;;;;53.20;32.13;;;;;;;0.16;61.56;100112.59;6309221;22;20375;-77
2022/01/17 03:37:08;;;;;;;38.83;23.90;;;;;;;-0.17;61.67;100069.66;6309005;22;20026;-77
2022/01/17 03:39:33;;;;;;;32.60;20.40;;;;;;;-0.39;61.20;100007.91;6281552;22;19999;-77
2022/01/17 03:41:59;;;;;;;30.63;20.27;;;;;;;0.19;61.33;100096.81;6308742;22;19999;-77
2022/01/17 03:44:24;;;;;;;34.30;21.93;;;;;;;-0.31;61.24;100012.63;6309463;22;20056;-77
2022/01/17 03:46:50;;;;;;;29.03;20.43;;;;;;;0.30;61.05;100117.75;6309639;22;20502;-77
2022/01/17 03:49:15;;;;;;;26.77;18.53;;;;;;;0.32;60.72;100121.06;6309016;22;20049;-77
2022/01/17 03:51:40;;;;;;;26.37;19.07;;;;;;;-0.24;61.00;100036.41;6308409;22;20006;-77
2022/01/17 03:54:06;;;;;;;25.10;18.07;;;;;;;0.11;60.92;100080.91;6309041;22;20025;-77
2022/01/17 03:56:32;;;;;;;26.13;19.67;;;;;;;0.20;60.86;100101.09;6309032;22;20022;-77
2022/01/17 03:58:57;;;;;;;27.57;19.07;;;;;;;-0.23;60.86;100064.84;6308472;22;20468;-78
2022/01/17 04:01:23;;;;;;;36.53;23.47;;;;;;;-0.38;60.86;100019.97;6308345;22;19999;-77
2022/01/17 04:03:48;;;;;;;32.23;21.13;;;;;;;-0.19;60.88;100026.56;6307658;22;20007;-77
2022/01/17 04:06:15;;;;;;;32.17;22.60;;;;;;;-0.30;61.02;100001.31;6307605;22;19995;-77
2022/01/17 04:08:42;;;;;;;26.57;18.97;;;;;;;0.31;61.02;100101.22;6308801;22;20023;-77
2022/01/17 04:11:07;;;;;;;27.93;17.80;;;;;;;0.13;60.68;100076.44;6309004;22;20330;-77
2022/01/17 04:13:34;;;;;;;24.70;16.83;;;;;;;0.28;61.18;100111.81;6308265;22;19992;-77
2022/01/17 04:16:00;;;;;;;28.00;17.90;;;;;;;0.25;60.52;100091.25;6308682;22;19999;-77
2022/01/17 04:18:25;;;;;;;29.47;20.87;;;;;;;-0.29;60.79;100015.94;6309529;22;20455;-77
2022/01/17 04:20:52;;;;;;;29.03;19.97;;;;;;;0.16;60.58;100116.03;6310272;22;19995;-77
2022/01/17 04:23:19;;;;;;;26.67;18.87;;;;;;;0.18;60.54;100108.97;6310393;22;20110;-77
2022/01/17 04:25:44;;;;;;;24.80;18.60;;;;;;;-0.19;61.00;100055.13;6311333;22;19999;-78
2022/01/17 04:28:12;;;;;;;25.23;18.47;;;;;;;0.18;60.64;100115.94;6311703;22;19995;-77
2022/01/17 04:30:38;;;;;;;26.13;18.20;;;;;;;-0.54;60.92;100013.25;6311203;22;19999;-77
2022/01/17 04:33:05;;;;;;;29.77;19.77;;;;;;;0.07;60.71;100098.44;6311319;22;20503;-77
2022/01/17 04:35:31;;;;;;;25.80;19.50;;;;;;;-0.12;60.42;100075.41;6284627;22;20003;-77
2022/01/17 04:38:08;;;;;;;27.00;18.40;;;;;;;-0.27;60.61;100047.00;6311011;22;20346;-77
2022/01/17 04:40:38;;;;;;;30.17;19.47;;;;;;;-0.05;60.46;100088.81;6311811;22;20018;-77
2022/01/17 04:43:13;;;;;;;26.03;19.33;;;;;;;-0.34;60.65;100044.78;6312224;22;20007;-77
2022/01/17 04:45:38;;;;;;;26.30;20.43;;;;;;;0.07;60.79;100114.03;6311767;22;19999;-77
2022/01/17 04:48:04;;;;;;;24.57;18.07;;;;;;;-0.02;60.72;100107.63;6284428;22;20025;-77
2022/01/17 04:50:29;;;;;;;27.20;18.67;;;;;;;0.00;60.85;100117.94;6311842;22;19995;-77
2022/01/17 04:52:58;;;;;;;25.53;18.63;;;;;;;0.06;60.35;100124.50;6312307;22;20497;-77
2022/01/17 04:55:25;;;;;;;24.13;17.17;;;;;;;-0.61;60.79;100015.38;6283261;22;20498;-77
2022/01/17 04:57:50;;;;;;;27.47;19.00;;;;;;;-0.15;60.33;100080.78;6311236;22;20043;-77
2022/01/17 05:00:19;;;;;;;29.13;19.97;;;;;;;-0.26;60.50;100065.06;6311438;22;20074;-77
2022/01/17 05:02:45;;;;;;;29.70;20.77;;;;;;;0.12;60.66;100131.91;6312026;22;19999;-77
2022/01/17 05:05:11;;;;;;;30.40;20.20;;;;;;;0.12;60.46;100121.53;6311779;22;20037;-77
2022/01/17 05:07:38;;;;;;;34.83;23.43;;;;;;;0.09;60.51;100134.69;6311911;22;20068;-77
2022/01/17 05:10:07;;;;;;;38.00;25.63;;;;;;;-0.13;60.37;100081.50;6311652;22;19999;-77
2022/01/17 05:12:33;;;;;;;40.73;27.20;;;;;;;-0.04;60.46;100104.28;6311751;22;19992;-77
2022/01/17 05:14:59;;;;;;;38.47;27.47;;;;;;;-0.03;60.32;100092.97;6284424;22;20045;-77
2022/01/17 05:19:59;;;;;;;47.57;29.20;;;;;;;0.09;60.76;100103.53;6311685;22;20003;-77
2022/01/17 05:22:30;;;;;;;46.13;28.20;;;;;;;-0.36;60.30;100038.84;6311753;22;20003;-77
2022/01/17 05:24:55;;;;;;;44.43;28.77;;;;;;;-0.03;60.30;100072.22;6311916;22;20023;-77
2022/01/17 05:27:21;;;;;;;44.47;30.63;;;;;;;-0.04;60.77;100099.09;6312145;22;20002;-77
2022/01/17 05:29:46;;;;;;;56.50;36.17;;;;;;;-0.36;60.38;100023.28;6312195;22;19999;-77
2022/01/17 05:32:12;;;;;;;63.10;42.23;;;;;;;-0.39;60.52;100002.72;6311043;22;19996;-78
2022/01/17 05:34:40;;;;;;;68.53;44.53;;;;;;;0.08;60.05;100074.16;6310371;22;20401;-77
2022/01/17 05:37:10;;;;;;;62.40;42.50;;;;;;;0.19;60.52;100094.22;6311935;22;19999;-77
2022/01/17 05:39:36;;;;;;;120.87;75.10;;;;;;;0.04;60.41;100071.84;6312432;22;20006;-77
2022/01/17 05:42:03;;;;;;;138.00;79.27;;;;;;;0.13;60.53;100098.06;6311551;22;19999;-77
2022/01/17 05:44:28;;;;;;;136.23;80.57;;;;;;;0.13;60.37;100097.22;6284855;22;20045;-77
2022/01/17 05:46:54;;;;;;;120.73;68.03;;;;;;;-0.09;60.41;100072.59;6311802;22;19999;-77
2022/01/17 05:49:19;;;;;;;114.83;65.80;;;;;;;-0.36;60.34;100020.69;6284552;22;20006;-77
2022/01/17 05:51:45;;;;;;;95.57;57.37;;;;;;;-0.52;59.98;99986.28;6311674;22;20022;-77
2022/01/17 05:54:10;;;;;;;92.67;51.93;;;;;;;-0.06;60.28;100051.66;6312040;22;20455;-77
2022/01/17 05:56:36;;;;;;;98.37;57.37;;;;;;;-0.04;60.27;100051.53;6311332;22;20027;-77
2022/01/17 05:59:01;;;;;;;116.50;64.67;;;;;;;-0.04;60.38;100059.34;6311800;22;20385;-77
2022/01/17 06:01:26;;;;;;;102.80;57.73;;;;;;;-0.13;60.41;100045.19;6311953;22;20077;-77
2022/01/17 06:03:52;;;;;;;99.27;57.53;;;;;;;-0.24;60.47;100045.03;6310988;22;20086;-78
2022/01/17 06:06:17;;;;;;;99.10;56.47;;;;;;;-0.30;60.45;100022.06;6311376;22;20014;-78
2022/01/17 06:08:43;;;;;;;95.47;58.47;;;;;;;-0.28;60.09;100024.56;6311680;22;19996;-77
2022/01/17 06:11:09;;;;;;;92.17;56.23;;;;;;;-0.11;60.17;100048.50;6312041;22;20006;-77
2022/01/17 06:13:34;;;;;;;95.33;58.37;;;;;;;0.13;59.94;100079.03;6311620;22;19991;-77
2022/01/17 06:16:00;;;;;;;87.13;55.30;;;;;;;0.08;59.88;100052.56;6313021;22;20433;-77
2022/01/17 06:18:25;;;;;;;86.73;54.27;;;;;;;0.21;59.92;100066.41;6312642;22;20042;-77
2022/01/17 06:20:51;;;;;;;73.00;47.70;;;;;;;0.02;60.05;100030.41;6310640;22;20097;-77
2022/01/17 06:23:17;;;;;;;75.97;48.87;;;;;;;0.22;59.73;100060.28;6282726;22;20023;-77
2022/01/17 06:25:42;;;;;;;75.97;49.33;;;;;;;-0.20;59.90;99992.00;6310261;22;20095;-77
2022/01/17 06:28:08;;;;;;;70.40;48.17;;;;;;;0.27;59.67;100073.78;6283300;22;20006;-77
2022/01/17 06:30:33;;;;;;;68.67;45.57;;;;;;;0.20;59.72;100049.16;6283078;22;20003;-77
2022/01/17 06:32:59;;;;;;;61.27;41.70;;;;;;;-0.06;59.56;100009.28;6309758;22;20017;-77
2022/01/17 06:35:24;;;;;;;60.30;42.63;;;;;;;0.34;59.54;100077.66;6309226;22;20006;-77
2022/01/17 06:37:51;;;;;;;71.73;48.07;;;;;;;-0.26;59.67;99976.84;6308122;22;20433;-77
2022/01/17 06:40:17;;;;;;;70.33;50.37;;;;;;;-0.52;59.77;99924.03;6307763;22;20051;-77
2022/01/17 06:42:42;;;;;;;76.73;52.73;;;;;;;0.37;59.72;100068.84;6280683;22;20384;-78
2022/01/17 06:45:09;;;;;;;83.13;55.63;;;;;;;0.02;59.35;100009.66;6280889;22;20083;-77
2022/01/17 06:47:36;;;;;;;66.50;46.90;;;;;;;0.42;59.05;100075.38;6307894;22;20374;-78
2022/01/17 06:50:04;;;;;;;74.27;48.83;;;;;;;0.29;59.24;100044.19;6306929;22;19999;-77
2022/01/17 06:52:31;;;;;;;67.00;47.37;;;;;;;0.28;59.51;100050.31;6307595;22;20048;-77
2022/01/17 06:54:56;;;;;;;72.50;49.37;;;;;;;-0.19;59.21;99977.28;6305534;22;20002;-78
2022/01/17 06:57:23;;;;;;;73.13;49.37;;;;;;;0.21;59.46;100009.28;6306762;22;19999;-77
2022/01/17 06:59:49;;;;;;;73.00;50.60;;;;;;;0.52;59.34;100052.22;6305957;22;19995;-77
2022/01/17 07:02:15;;;;;;;81.80;53.40;;;;;;;0.53;59.51;100044.34;6306058;22;20402;-77
2022/01/17 07:04:40;;;;;;;94.33;60.67;;;;;;;0.21;59.15;99985.91;6306219;22;19995;-77
2022/01/17 07:07:06;;;;;;;91.63;58.83;;;;;;;-0.01;59.18;99966.53;6307907;22;19999;-77
2022/01/17 07:09:31;;;;;;;89.47;61.77;;;;;;;0.09;59.25;99959.00;6307876;22;20444;-77
2022/01/17 07:12:00;;;;;;;85.50;55.20;;;;;;;0.26;59.10;99965.66;6279464;22;19998;-77
2022/01/17 07:14:27;;;;;;;78.87;51.37;;;;;;;0.70;59.24;100030.22;6308052;22;19995;-77
2022/01/17 07:16:52;;;;;;;73.20;48.60;;;;;;;0.75;59.13;100012.56;6307692;22;20003;-81
2022/01/17 07:19:18;;;;;;;75.77;51.97;;;;;;;0.18;59.03;99919.44;6283770;22;20064;-80
2022/01/17 07:21:43;;;;;;;87.30;57.53;;;;;;;0.85;58.97;100007.56;6313245;22;20003;-81
2022/01/17 07:24:09;;;;;;;99.20;67.20;;;;;;;0.55;58.75;99955.91;6312337;22;20003;-77
2022/01/17 07:26:35;;;;;;;99.80;68.50;;;;;;;0.85;58.78;99986.78;6281581;22;20003;-77
2022/01/17 07:29:01;;;;;;;106.93;70.53;;;;;;;0.51;58.78;99921.50;6308133;22;20026;-77
2022/01/17 07:31:26;;;;;;;115.70;74.90;;;;;;;1.06;58.67;99998.28;6308093;22;20395;-77
2022/01/17 07:33:52;;;;;;;121.00;80.53;;;;;;;0.95;58.66;99990.41;6307416;22;20043;-77
2022/01/17 07:36:19;;;;;;;124.27;81.23;;;;;;;0.93;58.67;99974.09;6305281;22;20003;-77
2022/01/17 07:38:46;;;;;;;110.90;75.80;;;;;;;0.60;58.43;99926.06;6278419;22;20426;-77
2022/01/17 07:41:12;;;;;;;101.27;65.93;;;;;;;1.12;58.64;99968.44;6304645;22;20074;-77
2022/01/17 07:43:38;;;;;;;95.07;61.97;;;;;;;0.83;58.46;99921.91;6276485;22;20035;-78
2022/01/17 07:46:18;;;;;;;87.60;59.10;;;;;;;1.30;58.51;99977.53;6277334;22;20411;-77
2022/01/17 07:51:27;;;;;;;97.60;66.03;;;;;;;0.89;58.33;99879.88;6306307;22;20451;-77
2022/01/17 07:53:54;;;;;;;104.33;70.50;;;;;;;1.38;58.86;99941.41;6279070;22;20065;-77
2022/01/17 07:56:20;;;;;;;104.87;69.40;;;;;;;1.51;58.65;99950.03;6308649;22;20078;-77
2022/01/17 07:58:46;;;;;;;105.80;72.00;;;;;;;1.56;58.57;99973.09;6281405;22;20007;-78
2022/01/17 08:01:12;;;;;;;87.20;58.23;;;;;;;1.51;58.66;99962.19;6279052;22;20483;-78
2022/01/17 08:03:37;;;;;;;76.10;51.27;;;;;;;1.56;58.38;99958.31;6279599;22;20083;-78
2022/01/17 08:06:03;;;;;;;79.27;53.80;;;;;;;1.02;58.37;99882.44;6306662;22;19995;-78
2022/01/17 08:08:29;;;;;;;71.33;46.93;;;;;;;1.76;58.50;100026.34;6308047;22;19995;-78
2022/01/17 08:10:54;;;;;;;70.67;46.07;;;;;;;1.84;58.49;100047.44;6306234;22;20054;-78
2022/01/17 08:13:20;;;;;;;64.47;46.20;;;;;;;1.76;58.05;100041.94;6306874;22;20035;-78
2022/01/17 08:15:46;;;;;;;54.20;36.40;;;;;;;2.00;57.54;100083.63;6306309;22;20026;-78
2022/01/17 08:18:13;;;;;;;47.03;32.57;;;;;;;1.56;57.46;100025.16;6306295;22;20038;-78
2022/01/17 08:20:40;;;;;;;35.43;26.43;;;;;;;1.65;57.22;100053.13;6279254;22;20520;-78
2022/01/17 08:23:06;;;;;;;47.20;32.80;;;;;;;1.69;57.17;100022.50;6279726;22;20064;-78
2022/01/17 08:25:31;;;;;;;51.93;35.83;;;;;;;2.05;56.92;100110.16;6307076;22;19995;-77
2022/01/17 08:27:57;;;;;;;50.47;35.77;;;;;;;2.22;57.51;100125.41;6306253;22;20007;-77
2022/01/17 08:30:23;;;;;;;47.57;33.10;;;;;;;1.39;57.52;99984.69;6306300;22;20425;-77
2022/01/17 08:32:50;;;;;;;46.60;34.53;;;;;;;1.80;57.05;99966.13;6306766;22;20522;-78
2022/01/17 08:35:16;;;;;;;45.73;31.80;;;;;;;2.58;56.62;100069.78;6307403;22;20005;-78
2022/01/17 08:37:42;;;;;;;42.33;31.23;;;;;;;2.57;56.52;100009.97;6312925;22;20011;-78
2022/01/17 08:40:08;;;;;;;39.97;28.83;;;;;;;2.75;56.68;100051.09;6306501;22;20003;-78
2022/01/17 08:42:36;;;;;;;53.07;34.47;;;;;;;2.30;56.64;99942.50;6307325;22;20060;-78
2022/01/17 08:45:03;;;;;;;41.20;32.60;;;;;;;2.85;56.95;99979.06;6307527;22;20428;-78
2022/01/17 08:47:29;;;;;;;43.43;31.10;;;;;;;2.75;56.87;99966.84;6307499;22;19996;-78
2022/01/17 08:49:54;;;;;;;38.17;27.17;;;;;;;3.16;56.23;100003.63;6306861;22;20460;-77
2022/01/17 08:52:20;;;;;;;39.90;28.70;;;;;;;2.88;56.36;99910.19;6305626;22;20348;-78
2022/01/17 08:54:45;;;;;;;39.20;27.30;;;;;;;2.98;56.11;99877.25;6308055;22;19999;-78
2022/01/17 08:57:11;;;;;;;40.50;27.63;;;;;;;2.71;55.88;99820.25;6306733;22;20395;-78
2022/01/17 08:59:37;;;;;;;44.57;29.77;;;;;;;3.53;55.63;99921.56;6307042;22;20065;-78
2022/01/17 09:02:03;;;;;;;45.70;32.40;;;;;;;3.34;55.67;99875.25;6307646;22;19995;-78
2022/01/17 09:04:28;;;;;;;46.57;32.30;;;;;;;3.80;55.50;99937.66;6277089;22;20452;-78
2022/01/17 09:06:54;;;;;;;46.87;32.50;;;;;;;3.33;55.58;99830.06;6281952;22;19999;-78
2022/01/17 09:09:19;;;;;;;42.50;32.23;;;;;;;3.87;55.39;99891.78;6310974;22;20018;-77
2022/01/17 09:11:45;;;;;;;47.17;31.57;;;;;;;4.06;55.52;99881.47;6310431;22;20000;-78
2022/01/17 09:14:11;;;;;;;39.13;28.70;;;;;;;3.48;55.27;99794.03;6309184;22;20010;-78
2022/01/17 09:16:37;;;;;;;48.37;33.77;;;;;;;4.23;54.98;99868.75;6287955;22;20083;-78
2022/01/17 09:19:04;;;;;;;34.70;23.67;;;;;;;3.85;54.69;99789.22;6317297;22;20003;-78
2022/01/17 09:21:30;;;;;;;38.27;24.63;;;;;;;4.12;54.48;99846.16;6317057;22;20508;-78
2022/01/17 09:23:58;;;;;;;32.90;24.13;;;;;;;3.98;53.67;99815.97;6313011;22;20029;-78
2022/01/17 09:26:25;;;;;;;23.37;17.33;;;;;;;4.58;54.07;99887.53;6312847;22;20022;-78
2022/01/17 09:28:52;;;;;;;42.17;28.47;;;;;;;3.98;53.73;99774.16;6306405;22;20017;-78
2022/01/17 09:31:18;;;;;;;18.63;14.33;;;;;;;4.78;53.49;99886.66;6305282;22;20006;-80
2022/01/17 09:33:44;;;;;;;35.73;22.27;;;;;;;4.43;52.95;99834.75;6306157;22;19992;-78
2022/01/17 09:36:09;;;;;;;20.87;12.80;;;;;;;4.31;52.29;99775.66;6305910;22;20010;-79
2022/01/17 09:38:35;;;;;;;16.17;11.83;;;;;;;5.22;52.17;99886.38;6303717;22;20436;-79
2022/01/17 09:41:01;;;;;;;16.20;12.87;;;;;;;5.35;52.01;99877.28;6304318;22;20006;-82
2022/01/17 09:43:27;;;;;;;22.30;14.03;;;;;;;4.71;52.07;99757.34;6305677;22;19999;-78
2022/01/17 09:45:52;;;;;;;19.03;13.13;;;;;;;5.44;51.32;99831.13;6304657;22;19999;-80
2022/01/17 09:48:21;;;;;;;22.87;15.20;;;;;;;5.29;51.00;99820.25;6305654;22;20003;-79
2022/01/17 09:51:01;;;;;;;18.10;12.47;;;;;;;5.41;50.53;99821.75;6277334;22;19999;-79
2022/01/17 09:53:28;;;;;;;16.67;10.03;;;;;;;5.81;49.82;99854.81;6302539;22;19991;-79
2022/01/17 09:55:58;;;;;;;17.83;9.60;;;;;;;5.94;48.86;99855.38;6305037;22;20074;-78
2022/01/17 09:58:25;;;;;;;18.17;11.63;;;;;;;5.72;48.95;99798.00;6305081;22;20027;-79
2022/01/17 10:00:50;;;;;;;20.33;12.90;;;;;;;6.22;49.10;99847.59;6303336;22;20023;-78
2022/01/17 10:03:18;;;;;;;17.97;11.87;;;;;;;6.14;48.42;99824.72;6277935;22;20014;-81
2022/01/17 10:05:44;;;;;;;18.20;12.10;;;;;;;6.40;48.83;99864.25;6277968;22;20019;-78
2022/01/17 10:08:15;;;;;;;18.07;12.80;;;;;;;6.49;48.57;99850.25;6276727;22;20044;-85
2022/01/17 10:10:50;;;;;;;19.93;12.10;;;;;;;6.58;48.31;99844.16;6305554;22;20401;-78
2022/01/17 10:13:29;;;;;;;15.80;10.27;;;;;;;6.72;46.19;99832.38;6305484;22;20003;-79
2022/01/17 10:16:07;;;;;;;18.23;10.43;;;;;;;6.83;46.99;99826.94;6305475;22;20078;-79
2022/01/17 10:18:40;;;;;;;15.80;9.73;;;;;;;6.47;44.39;99741.22;6278023;22;19999;-79
2022/01/17 10:21:17;;;;;;;15.17;10.53;;;;;;;6.58;46.66;99749.72;6305370;22;19999;-81
2022/01/17 10:29:41;;;;;;;13.53;7.57;;;;;;;7.38;44.55;99811.06;6282258;22;20003;-78
2022/01/17 10:35:18;;;;;;;18.33;6.57;;;;;;;7.56;43.59;99777.75;6303723;22;20006;-79
2022/01/17 10:38:19;;;;;;;12.70;6.47;;;;;;;7.64;44.42;99777.78;6305485;22;19995;-82
2022/01/17 10:41:00;;;;;;;13.93;6.90;;;;;;;7.73;44.08;99756.81;6304923;22;20399;-78
2022/01/17 10:43:33;;;;;;;16.10;6.50;;;;;;;7.77;42.94;99759.00;6276360;22;20354;-79
2022/01/17 10:45:58;;;;;;;9.60;5.83;;;;;;;7.67;42.67;99755.66;6305853;22;20007;-78
2022/01/17 10:48:36;;;;;;;9.50;6.47;;;;;;;7.45;41.92;99700.97;6305100;22;19992;-78
2022/01/17 10:51:04;;;;;;;9.23;4.73;;;;;;;7.95;42.06;99756.31;6304979;22;19995;-78
2022/01/17 10:53:29;;;;;;;9.83;5.60;;;;;;;7.31;42.45;99639.28;6302724;22;20068;-77
2022/01/17 10:55:57;;;;;;;10.93;6.37;;;;;;;7.67;42.61;99691.75;6274928;22;19995;-78
2022/01/17 10:58:26;;;;;;;8.67;4.83;;;;;;;8.08;41.38;99735.66;6304273;22;20447;-78
2022/01/17 11:00:55;;;;;;;9.80;5.70;;;;;;;8.18;41.59;99753.97;6304623;22;19995;-79
2022/01/17 11:03:25;;;;;;;12.63;6.60;;;;;;;7.84;41.35;99688.22;6304576;22;20356;-80
2022/01/17 11:05:53;;;;;;;6.95;5.10;;;;;;;7.79;40.96;99675.56;6304078;22;19995;-77
2022/01/17 11:08:22;;;;;;;17.43;6.00;;;;;;;8.01;40.72;99713.59;6304709;22;20128;-79
2022/01/17 11:10:50;;;;;;;8.38;5.05;;;;;;;8.23;41.20;99744.63;6304997;22;20022;-79
2022/01/17 11:13:17;;;;;;;6.97;4.97;;;;;;;8.25;40.84;99731.31;6304727;22;20076;-76
2022/01/17 11:15:46;;;;;;;7.43;4.70;;;;;;;8.22;41.13;99729.84;6305232;22;20022;-78
2022/01/17 11:18:21;;;;;;;7.60;4.77;;;;;;;8.14;40.84;99702.66;6304623;22;19995;-77
2022/01/17 11:20:49;;;;;;;7.87;5.00;;;;;;;8.25;41.41;99718.19;6304612;22;20002;-79
2022/01/17 11:23:15;;;;;;;9.68;5.10;;;;;;;7.98;40.76;99653.44;6276562;22;20008;-79
2022/01/17 11:25:43;;;;;;;12.07;5.87;;;;;;;8.31;40.60;99716.72;6302920;22;20704;-79
2022/01/17 11:28:09;;;;;;;8.15;4.65;;;;;;;8.21;40.99;99707.16;6276086;22;20464;-79
2022/01/17 11:30:37;;;;;;;7.88;4.60;;;;;;;8.09;40.71;99684.72;6275298;22;20372;-78
2022/01/17 11:33:07;;;;;;;6.73;5.40;;;;;;;8.07;39.97;99701.63;6304319;22;20491;-79
2022/01/17 11:35:34;;;;;;;15.47;5.07;;;;;;;8.44;39.55;99725.00;6302223;22;20007;-78
2022/01/17 11:38:01;;;;;;;10.63;4.87;;;;;;;8.14;39.53;99681.59;6303386;22;20524;-78
2022/01/17 11:40:33;;;;;;;8.35;4.80;;;;;;;8.16;38.70;99685.72;6303698;22;20010;-78
2022/01/17 11:43:00;;;;;;;8.13;5.80;;;;;;;8.27;39.44;99705.69;6276507;22;20003;-80
2022/01/17 11:45:29;;;;;;;10.38;5.53;;;;;;;8.54;39.68;99749.38;6301938;22;20078;-79
2022/01/17 11:47:59;;;;;;;7.95;4.63;;;;;;;8.09;39.19;99666.31;6302311;22;20436;-79